KLGA

Laguardia Airport

New York, New York, USA
METAR KLGA 172151Z 32016G25KT 10SM BKN065 BKN085 15/04 A2991 RMK AO2 PK WND 30027/2120 SLP129 T01500044
Observed Flight Rules
Oct-17 @ 21:51 UTC (47 minutes ago) Visual Flight Rules
Wind Visibility Clouds
320° at 16 knots
 Gusting to 25 knots
10 miles
  • Broken at 6,500' AGL
  • Broken at 8,500' AGL
Temperatures Readings
Current 15°C / 59°F
Dewpoint 4°C / 39°F
Humidity 48%
Altimeter 29.91" Hg
Pressure 1012.9 hPa
Elevation 11
METAR KLGA 172151Z 32016G25KT 10SM BKN065 BKN085 15/04 A2991 RMK AO2 PK WND 30027/2120 SLP129 T01500044
Observed Flight Rules
Oct-17 @ 21:51 UTC
(47 minutes ago)
VFR
Wind Visibility
320° at 16 knots
 Gusting to 25 knots
10 miles
Clouds
  • Broken at 6,500' AGL
  • Broken at 8,500' AGL
Temperature Dewpoint
15°C / 59°F 4°C / 39°F
Humidity Altimeter Pressure
48% 29.91" Hg 1012.9 hPa